Kota Padang, Indonesia

12:51 AM WIB on Oktober 01, 2014 (GMT +0700)
MINANGKABAU INT | Change Station
CLOSE
Current Station
Airport
Location: MINANGKABAU INT,
Elevation: 16 ft
Nearby Weather Stations

Elev 16 ft 0.79 °S, 100.28 °E | Updated 2 hours ago

Mostly Cloudy
Mendung Merata
79 °F
Feels Like 79 °F
N
5
Angin Variable Angin from Dari Utara ke Timurlaut

Siang Ini
High -- | Low -- °F
--% Chance of Precip.
Yesterday
High -- | Low -- °F
Precip. -- Inch
6:04 AM 6:11 PM
Waxing Crescent, 38% visible
Tekanan 29.86 Inch
Jarak Pandang 3.7 Mil
Awan Mendung Merata 1900 ft
Titik Embun 77 °F
Kelembaban 94%
Rainfall 0.00 Inch
Snow Depth Not available.
UV 0 out of 12
Pollen Not available.
Air Quality Not available.
Flu Activity Not available.
METAR WIPT 301530Z 02004KT 6000 R33/M0050VP1500U BKN019 26/25 Q1011

More Conditions Fewer Conditions

Tekanan 29.86 Inch
Jarak Pandang 3.7 Mil
Awan Mendung Merata 1900 ft
Titik Embun 77 °F
Kelembaban 94%
Rainfall 0.00 Inch
Snow Depth Not available.
UV 0 out of 12
Pollen Not available.
Air Quality Not available.
Flu Activity Not available.
METAR WIPT 301530Z 02004KT 6000 R33/M0050VP1500U BKN019 26/25 Q1011

More Conditions Fewer Conditions

10-Day Weather Forecast

Almanac

Astronomi

Oct. 01, 2014 Rise Set
Actual Time 6:04 AM WIB 6:11 PM WIB
Civil Twilight 5:44 AM WIB 6:32 PM WIB
Nautical Twilight 5:20 AM WIB 6:56 PM WIB
Astronomical Twilight 4:56 AM WIB 7:20 PM WIB
Moon 11:39 AM WIB (10/1) No Moon Set
Length Of Visible Light 12h 48m
Lama Satu Hari
12h 06m
Tomorrow will be 0m 4s longer.
Waxing Crescent, 38% of the Moon is Illuminated
Sep 30
Waxing Crescent
Oct 1
Triwulan Pertama
Oct 8
Bulan Purnama
Oct 15
Kuartil Terakhir
Oct 23
New

Yesterday's Extremes

Country Highs Country Lows

Community

WunderPhotos

Upload Photos

1,757,693 photos uploaded!

Nearby

Snow Depth

Not available.

Earthquake Activity

City Distance Mag. Time & Date
No recent earthquake activity has been reported nearby.
Minimum magnitude displayed is 2.5.

Coastal Water Temperatures

Lokasi Temperatur
No Stations Reporting

Nearby Weather Stations